sensor_id;sensor_type;location;lat;lon;timestamp;P1;durP1;ratioP1;P2;durP2;ratioP2
6432;SDS011;3249;42.690;23.260;2023-03-13T00:02:00;8.57;;;7.77;;
6432;SDS011;3249;42.690;23.260;2023-03-13T00:04:29;8.53;;;7.93;;
6432;SDS011;3249;42.690;23.260;2023-03-13T00:06:58;9.10;;;8.40;;
6432;SDS011;3249;42.690;23.260;2023-03-13T00:09:28;11.00;;;7.80;;
6432;SDS011;3249;42.690;23.260;2023-03-13T00:11:56;7.83;;;7.13;;
6432;SDS011;3249;42.690;23.260;2023-03-13T00:14:28;8.17;;;7.57;;
6432;SDS011;3249;42.690;23.260;2023-03-13T00:16:57;7.93;;;7.33;;
6432;SDS011;3249;42.690;23.260;2023-03-13T00:19:27;8.40;;;7.63;;
6432;SDS011;3249;42.690;23.260;2023-03-13T00:21:56;7.63;;;7.03;;
6432;SDS011;3249;42.690;23.260;2023-03-13T00:24:25;6.87;;;6.40;;
6432;SDS011;3249;42.690;23.260;2023-03-13T00:26:54;7.50;;;6.93;;
6432;SDS011;3249;42.690;23.260;2023-03-13T00:29:31;7.43;;;6.93;;
6432;SDS011;3249;42.690;23.260;2023-03-13T00:32:01;7.83;;;7.13;;
6432;SDS011;3249;42.690;23.260;2023-03-13T00:34:30;9.33;;;8.50;;
6432;SDS011;3249;42.690;23.260;2023-03-13T00:36:59;8.50;;;7.63;;
6432;SDS011;3249;42.690;23.260;2023-03-13T00:39:28;7.20;;;6.70;;
6432;SDS011;3249;42.690;23.260;2023-03-13T00:42:00;8.53;;;7.63;;
6432;SDS011;3249;42.690;23.260;2023-03-13T00:44:32;8.53;;;7.93;;
6432;SDS011;3249;42.690;23.260;2023-03-13T00:47:01;8.10;;;7.43;;
6432;SDS011;3249;42.690;23.260;2023-03-13T00:49:31;8.70;;;7.97;;
6432;SDS011;3249;42.690;23.260;2023-03-13T00:52:00;7.70;;;7.00;;
6432;SDS011;3249;42.690;23.260;2023-03-13T00:54:29;7.20;;;6.70;;
6432;SDS011;3249;42.690;23.260;2023-03-13T00:56:58;7.37;;;6.87;;
6432;SDS011;3249;42.690;23.260;2023-03-13T00:59:28;7.33;;;6.73;;
6432;SDS011;3249;42.690;23.260;2023-03-13T01:01:59;6.63;;;6.20;;
6432;SDS011;3249;42.690;23.260;2023-03-13T01:04:29;8.77;;;8.07;;
6432;SDS011;3249;42.690;23.260;2023-03-13T01:06:57;7.83;;;7.03;;
6432;SDS011;3249;42.690;23.260;2023-03-13T01:09:26;7.00;;;6.53;;
6432;SDS011;3249;42.690;23.260;2023-03-13T01:11:55;7.70;;;7.20;;
6432;SDS011;3249;42.690;23.260;2023-03-13T01:14:24;8.17;;;7.47;;
6432;SDS011;3249;42.690;23.260;2023-03-13T01:16:53;9.53;;;8.00;;
6432;SDS011;3249;42.690;23.260;2023-03-13T01:19:25;8.93;;;8.20;;
6432;SDS011;3249;42.690;23.260;2023-03-13T01:21:54;8.93;;;8.13;;
6432;SDS011;3249;42.690;23.260;2023-03-13T01:24:23;9.40;;;8.50;;
6432;SDS011;3249;42.690;23.260;2023-03-13T01:26:52;7.80;;;7.20;;
6432;SDS011;3249;42.690;23.260;2023-03-13T01:29:22;11.63;;;9.53;;
6432;SDS011;3249;42.690;23.260;2023-03-13T01:31:51;9.23;;;8.43;;
6432;SDS011;3249;42.690;23.260;2023-03-13T01:34:20;8.50;;;7.90;;
6432;SDS011;3249;42.690;23.260;2023-03-13T01:36:52;7.40;;;6.80;;
6432;SDS011;3249;42.690;23.260;2023-03-13T01:39:21;9.57;;;8.57;;
6432;SDS011;3249;42.690;23.260;2023-03-13T01:41:50;8.77;;;8.07;;
6432;SDS011;3249;42.690;23.260;2023-03-13T01:44:21;8.83;;;8.03;;
6432;SDS011;3249;42.690;23.260;2023-03-13T01:46:54;9.13;;;8.43;;
6432;SDS011;3249;42.690;23.260;2023-03-13T01:49:23;8.10;;;7.30;;
6432;SDS011;3249;42.690;23.260;2023-03-13T01:52:19;9.03;;;8.43;;
6432;SDS011;3249;42.690;23.260;2023-03-13T01:54:58;8.53;;;7.73;;
6432;SDS011;3249;42.690;23.260;2023-03-13T01:57:31;8.53;;;7.60;;
6432;SDS011;3249;42.690;23.260;2023-03-13T02:00:04;8.73;;;7.70;;
6432;SDS011;3249;42.690;23.260;2023-03-13T02:02:41;7.73;;;7.23;;
6432;SDS011;3249;42.690;23.260;2023-03-13T02:05:14;8.10;;;7.37;;
6432;SDS011;3249;42.690;23.260;2023-03-13T02:07:51;8.87;;;8.13;;
6432;SDS011;3249;42.690;23.260;2023-03-13T02:10:24;8.57;;;7.77;;
6432;SDS011;3249;42.690;23.260;2023-03-13T02:12:56;10.30;;;9.30;;
6432;SDS011;3249;42.690;23.260;2023-03-13T02:15:26;9.63;;;8.63;;
6432;SDS011;3249;42.690;23.260;2023-03-13T02:17:56;10.03;;;9.13;;
6432;SDS011;3249;42.690;23.260;2023-03-13T02:20:25;10.10;;;9.07;;
6432;SDS011;3249;42.690;23.260;2023-03-13T02:22:58;10.53;;;9.43;;
6432;SDS011;3249;42.690;23.260;2023-03-13T02:25:36;14.23;;;9.43;;
6432;SDS011;3249;42.690;23.260;2023-03-13T02:28:11;10.93;;;9.47;;
6432;SDS011;3249;42.690;23.260;2023-03-13T02:30:43;10.17;;;8.93;;
6432;SDS011;3249;42.690;23.260;2023-03-13T02:33:13;12.07;;;9.47;;
6432;SDS011;3249;42.690;23.260;2023-03-13T02:35:44;10.70;;;8.73;;
6432;SDS011;3249;42.690;23.260;2023-03-13T02:38:16;9.70;;;8.60;;
6432;SDS011;3249;42.690;23.260;2023-03-13T02:40:52;8.87;;;7.97;;
6432;SDS011;3249;42.690;23.260;2023-03-13T02:43:25;9.13;;;8.23;;
6432;SDS011;3249;42.690;23.260;2023-03-13T02:46:06;10.57;;;8.77;;
6432;SDS011;3249;42.690;23.260;2023-03-13T02:48:46;10.80;;;9.70;;
6432;SDS011;3249;42.690;23.260;2023-03-13T02:51:19;11.87;;;10.67;;
6432;SDS011;3249;42.690;23.260;2023-03-13T02:53:53;14.20;;;11.27;;
6432;SDS011;3249;42.690;23.260;2023-03-13T02:56:28;11.27;;;10.07;;
6432;SDS011;3249;42.690;23.260;2023-03-13T02:59:02;11.13;;;9.57;;
6432;SDS011;3249;42.690;23.260;2023-03-13T03:01:33;12.43;;;9.77;;
6432;SDS011;3249;42.690;23.260;2023-03-13T03:04:02;14.27;;;10.20;;
6432;SDS011;3249;42.690;23.260;2023-03-13T03:06:31;15.45;;;11.70;;
6432;SDS011;3249;42.690;23.260;2023-03-13T03:09:02;68.13;;;30.97;;
6432;SDS011;3249;42.690;23.260;2023-03-13T03:11:36;55.47;;;27.87;;
6432;SDS011;3249;42.690;23.260;2023-03-13T03:14:10;33.83;;;18.58;;
6432;SDS011;3249;42.690;23.260;2023-03-13T03:16:43;102.23;;;34.83;;
6432;SDS011;3249;42.690;23.260;2023-03-13T03:19:31;47.70;;;24.25;;
6432;SDS011;3249;42.690;23.260;2023-03-13T03:22:00;24.80;;;14.23;;
6432;SDS011;3249;42.690;23.260;2023-03-13T03:24:31;16.80;;;12.43;;
6432;SDS011;3249;42.690;23.260;2023-03-13T03:27:02;22.75;;;15.32;;
6432;SDS011;3249;42.690;23.260;2023-03-13T03:29:38;18.42;;;12.40;;
6432;SDS011;3249;42.690;23.260;2023-03-13T03:32:07;14.20;;;11.73;;
6432;SDS011;3249;42.690;23.260;2023-03-13T03:34:36;15.23;;;11.73;;
6432;SDS011;3249;42.690;23.260;2023-03-13T03:37:06;13.60;;;12.20;;
6432;SDS011;3249;42.690;23.260;2023-03-13T03:39:35;35.57;;;20.40;;
6432;SDS011;3249;42.690;23.260;2023-03-13T03:42:07;22.13;;;15.57;;
6432;SDS011;3249;42.690;23.260;2023-03-13T03:44:37;30.13;;;18.08;;
6432;SDS011;3249;42.690;23.260;2023-03-13T03:47:07;26.63;;;19.02;;
6432;SDS011;3249;42.690;23.260;2023-03-13T03:49:40;20.05;;;13.48;;
6432;SDS011;3249;42.690;23.260;2023-03-13T03:52:11;19.58;;;12.10;;
6432;SDS011;3249;42.690;23.260;2023-03-13T03:54:41;16.85;;;11.85;;
6432;SDS011;3249;42.690;23.260;2023-03-13T03:57:15;27.73;;;15.75;;
6432;SDS011;3249;42.690;23.260;2023-03-13T03:59:45;23.58;;;14.55;;
6432;SDS011;3249;42.690;23.260;2023-03-13T04:02:14;24.55;;;15.75;;
6432;SDS011;3249;42.690;23.260;2023-03-13T04:04:43;19.77;;;15.13;;
6432;SDS011;3249;42.690;23.260;2023-03-13T04:07:27;16.17;;;11.68;;
6432;SDS011;3249;42.690;23.260;2023-03-13T04:09:56;17.45;;;13.25;;
6432;SDS011;3249;42.690;23.260;2023-03-13T04:12:35;20.25;;;12.32;;
6432;SDS011;3249;42.690;23.260;2023-03-13T04:15:05;14.63;;;10.80;;
6432;SDS011;3249;42.690;23.260;2023-03-13T04:17:36;13.60;;;10.95;;
6432;SDS011;3249;42.690;23.260;2023-03-13T04:20:08;18.63;;;12.23;;
6432;SDS011;3249;42.690;23.260;2023-03-13T04:22:39;15.57;;;12.82;;
6432;SDS011;3249;42.690;23.260;2023-03-13T04:25:09;16.27;;;10.90;;
6432;SDS011;3249;42.690;23.260;2023-03-13T04:27:41;18.50;;;12.63;;
6432;SDS011;3249;42.690;23.260;2023-03-13T04:30:10;19.42;;;13.02;;
6432;SDS011;3249;42.690;23.260;2023-03-13T04:32:59;32.13;;;16.40;;
6432;SDS011;3249;42.690;23.260;2023-03-13T04:35:46;18.67;;;13.80;;
6432;SDS011;3249;42.690;23.260;2023-03-13T04:38:22;27.65;;;14.00;;
6432;SDS011;3249;42.690;23.260;2023-03-13T04:41:03;21.35;;;13.10;;
6432;SDS011;3249;42.690;23.260;2023-03-13T04:44:01;18.85;;;13.85;;
6432;SDS011;3249;42.690;23.260;2023-03-13T04:46:38;20.67;;;14.68;;
6432;SDS011;3249;42.690;23.260;2023-03-13T04:49:22;24.48;;;16.55;;
6432;SDS011;3249;42.690;23.260;2023-03-13T04:52:10;20.10;;;15.15;;
6432;SDS011;3249;42.690;23.260;2023-03-13T04:54:51;21.35;;;15.30;;
6432;SDS011;3249;42.690;23.260;2023-03-13T04:57:52;24.63;;;15.70;;
6432;SDS011;3249;42.690;23.260;2023-03-13T05:00:56;37.55;;;23.70;;
6432;SDS011;3249;42.690;23.260;2023-03-13T05:04:00;23.85;;;16.23;;
6432;SDS011;3249;42.690;23.260;2023-03-13T05:06:41;25.17;;;17.55;;
6432;SDS011;3249;42.690;23.260;2023-03-13T05:09:29;26.42;;;16.15;;
6432;SDS011;3249;42.690;23.260;2023-03-13T05:12:17;36.05;;;16.75;;
6432;SDS011;3249;42.690;23.260;2023-03-13T05:15:12;20.33;;;14.70;;
6432;SDS011;3249;42.690;23.260;2023-03-13T05:17:49;24.13;;;15.07;;
6432;SDS011;3249;42.690;23.260;2023-03-13T05:20:18;17.60;;;14.37;;
6432;SDS011;3249;42.690;23.260;2023-03-13T05:22:59;24.27;;;15.57;;
6432;SDS011;3249;42.690;23.260;2023-03-13T05:25:44;31.60;;;14.90;;
6432;SDS011;3249;42.690;23.260;2023-03-13T05:28:31;59.38;;;38.38;;
6432;SDS011;3249;42.690;23.260;2023-03-13T05:31:16;64.37;;;39.73;;
6432;SDS011;3249;42.690;23.260;2023-03-13T05:34:06;70.83;;;45.43;;
6432;SDS011;3249;42.690;23.260;2023-03-13T05:36:49;54.77;;;34.70;;
6432;SDS011;3249;42.690;23.260;2023-03-13T05:39:37;58.23;;;36.97;;
6432;SDS011;3249;42.690;23.260;2023-03-13T05:42:38;56.47;;;36.20;;
6432;SDS011;3249;42.690;23.260;2023-03-13T05:45:21;56.67;;;37.00;;
6432;SDS011;3249;42.690;23.260;2023-03-13T05:48:19;52.03;;;32.33;;
6432;SDS011;3249;42.690;23.260;2023-03-13T05:51:06;99.23;;;51.10;;
6432;SDS011;3249;42.690;23.260;2023-03-13T05:54:01;93.67;;;52.53;;
6432;SDS011;3249;42.690;23.260;2023-03-13T05:56:54;68.73;;;42.27;;
6432;SDS011;3249;42.690;23.260;2023-03-13T05:59:34;64.23;;;38.57;;
6432;SDS011;3249;42.690;23.260;2023-03-13T06:02:38;54.07;;;33.17;;
6432;SDS011;3249;42.690;23.260;2023-03-13T06:05:12;51.00;;;33.33;;
6432;SDS011;3249;42.690;23.260;2023-03-13T06:07:44;48.23;;;30.80;;
6432;SDS011;3249;42.690;23.260;2023-03-13T06:10:13;56.83;;;31.40;;
6432;SDS011;3249;42.690;23.260;2023-03-13T06:12:42;53.77;;;36.67;;
6432;SDS011;3249;42.690;23.260;2023-03-13T06:15:13;50.47;;;35.23;;
6432;SDS011;3249;42.690;23.260;2023-03-13T06:17:58;67.47;;;40.80;;
6432;SDS011;3249;42.690;23.260;2023-03-13T06:20:27;58.47;;;43.50;;
6432;SDS011;3249;42.690;23.260;2023-03-13T06:22:59;67.03;;;46.03;;
6432;SDS011;3249;42.690;23.260;2023-03-13T06:25:28;47.77;;;34.50;;
6432;SDS011;3249;42.690;23.260;2023-03-13T06:27:57;37.13;;;27.13;;
6432;SDS011;3249;42.690;23.260;2023-03-13T06:30:26;41.47;;;31.57;;
6432;SDS011;3249;42.690;23.260;2023-03-13T06:32:55;40.50;;;29.07;;
6432;SDS011;3249;42.690;23.260;2023-03-13T06:35:25;52.70;;;33.90;;
6432;SDS011;3249;42.690;23.260;2023-03-13T06:37:54;42.77;;;26.83;;
6432;SDS011;3249;42.690;23.260;2023-03-13T06:40:25;27.77;;;19.03;;
6432;SDS011;3249;42.690;23.260;2023-03-13T06:42:54;23.80;;;18.43;;
6432;SDS011;3249;42.690;23.260;2023-03-13T06:45:23;23.80;;;18.77;;
6432;SDS011;3249;42.690;23.260;2023-03-13T06:47:52;32.10;;;23.33;;
6432;SDS011;3249;42.690;23.260;2023-03-13T06:50:21;26.27;;;19.20;;
6432;SDS011;3249;42.690;23.260;2023-03-13T06:52:50;27.93;;;18.70;;
6432;SDS011;3249;42.690;23.260;2023-03-13T06:55:19;20.33;;;13.40;;
6432;SDS011;3249;42.690;23.260;2023-03-13T06:57:53;10.47;;;9.37;;
6432;SDS011;3249;42.690;23.260;2023-03-13T07:00:23;9.67;;;8.70;;
6432;SDS011;3249;42.690;23.260;2023-03-13T07:02:52;9.97;;;8.97;;
6432;SDS011;3249;42.690;23.260;2023-03-13T07:05:21;9.70;;;8.80;;
6432;SDS011;3249;42.690;23.260;2023-03-13T07:07:50;9.73;;;8.57;;
6432;SDS011;3249;42.690;23.260;2023-03-13T07:10:19;11.00;;;9.87;;
6432;SDS011;3249;42.690;23.260;2023-03-13T07:12:49;9.47;;;8.07;;
6432;SDS011;3249;42.690;23.260;2023-03-13T07:15:20;14.10;;;9.43;;
6432;SDS011;3249;42.690;23.260;2023-03-13T07:17:51;10.30;;;9.27;;
6432;SDS011;3249;42.690;23.260;2023-03-13T07:20:20;12.57;;;10.37;;
6432;SDS011;3249;42.690;23.260;2023-03-13T07:22:50;24.30;;;13.70;;
6432;SDS011;3249;42.690;23.260;2023-03-13T07:25:20;12.23;;;10.77;;
6432;SDS011;3249;42.690;23.260;2023-03-13T07:27:49;11.60;;;10.40;;
6432;SDS011;3249;42.690;23.260;2023-03-13T07:30:22;12.67;;;11.00;;
6432;SDS011;3249;42.690;23.260;2023-03-13T07:32:51;13.43;;;12.00;;
6432;SDS011;3249;42.690;23.260;2023-03-13T07:35:21;14.70;;;11.67;;
6432;SDS011;3249;42.690;23.260;2023-03-13T07:37:50;12.47;;;11.17;;
6432;SDS011;3249;42.690;23.260;2023-03-13T07:40:20;22.67;;;13.27;;
6432;SDS011;3249;42.690;23.260;2023-03-13T07:42:49;17.87;;;12.30;;
6432;SDS011;3249;42.690;23.260;2023-03-13T07:45:19;15.50;;;11.30;;
6432;SDS011;3249;42.690;23.260;2023-03-13T07:47:56;14.13;;;12.57;;
6432;SDS011;3249;42.690;23.260;2023-03-13T07:50:25;14.47;;;11.73;;
6432;SDS011;3249;42.690;23.260;2023-03-13T07:52:54;14.50;;;11.67;;
6432;SDS011;3249;42.690;23.260;2023-03-13T07:55:23;11.73;;;10.40;;
6432;SDS011;3249;42.690;23.260;2023-03-13T07:57:53;14.83;;;11.80;;
6432;SDS011;3249;42.690;23.260;2023-03-13T08:00:22;18.10;;;13.53;;
6432;SDS011;3249;42.690;23.260;2023-03-13T08:02:54;15.80;;;13.63;;
6432;SDS011;3249;42.690;23.260;2023-03-13T08:05:23;15.60;;;13.73;;
6432;SDS011;3249;42.690;23.260;2023-03-13T08:07:52;17.30;;;13.00;;
6432;SDS011;3249;42.690;23.260;2023-03-13T08:10:21;16.27;;;12.53;;
6432;SDS011;3249;42.690;23.260;2023-03-13T08:12:50;14.53;;;13.03;;
6432;SDS011;3249;42.690;23.260;2023-03-13T08:15:19;12.93;;;11.67;;
6432;SDS011;3249;42.690;23.260;2023-03-13T08:17:53;13.80;;;12.27;;
6432;SDS011;3249;42.690;23.260;2023-03-13T08:20:22;17.17;;;14.27;;
6432;SDS011;3249;42.690;23.260;2023-03-13T08:22:54;20.10;;;15.03;;
6432;SDS011;3249;42.690;23.260;2023-03-13T08:25:24;18.17;;;14.80;;
6432;SDS011;3249;42.690;23.260;2023-03-13T08:27:54;18.83;;;15.17;;
6432;SDS011;3249;42.690;23.260;2023-03-13T08:30:23;20.00;;;11.43;;
6432;SDS011;3249;42.690;23.260;2023-03-13T08:32:55;15.07;;;11.20;;
6432;SDS011;3249;42.690;23.260;2023-03-13T08:35:24;12.03;;;10.73;;
6432;SDS011;3249;42.690;23.260;2023-03-13T08:37:55;12.53;;;10.80;;
6432;SDS011;3249;42.690;23.260;2023-03-13T08:40:25;12.53;;;10.67;;
6432;SDS011;3249;42.690;23.260;2023-03-13T08:42:54;12.03;;;9.80;;
6432;SDS011;3249;42.690;23.260;2023-03-13T08:45:23;12.47;;;10.33;;
6432;SDS011;3249;42.690;23.260;2023-03-13T08:47:57;11.17;;;10.00;;
6432;SDS011;3249;42.690;23.260;2023-03-13T08:50:26;16.37;;;10.90;;
6432;SDS011;3249;42.690;23.260;2023-03-13T08:52:55;13.17;;;10.57;;
6432;SDS011;3249;42.690;23.260;2023-03-13T08:55:25;11.77;;;10.67;;
6432;SDS011;3249;42.690;23.260;2023-03-13T08:57:53;12.40;;;11.07;;
6432;SDS011;3249;42.690;23.260;2023-03-13T09:00:23;16.63;;;11.37;;
6432;SDS011;3249;42.690;23.260;2023-03-13T09:02:52;16.47;;;12.20;;
6432;SDS011;3249;42.690;23.260;2023-03-13T09:05:24;13.93;;;12.43;;
6432;SDS011;3249;42.690;23.260;2023-03-13T09:07:53;13.57;;;12.10;;
6432;SDS011;3249;42.690;23.260;2023-03-13T09:10:22;14.57;;;11.80;;
6432;SDS011;3249;42.690;23.260;2023-03-13T09:12:51;13.50;;;11.73;;
6432;SDS011;3249;42.690;23.260;2023-03-13T09:15:20;13.43;;;11.90;;
6432;SDS011;3249;42.690;23.260;2023-03-13T09:17:49;14.37;;;12.87;;
6432;SDS011;3249;42.690;23.260;2023-03-13T09:20:19;14.17;;;12.70;;
6432;SDS011;3249;42.690;23.260;2023-03-13T09:22:51;14.73;;;12.57;;
6432;SDS011;3249;42.690;23.260;2023-03-13T09:25:20;17.23;;;12.63;;
6432;SDS011;3249;42.690;23.260;2023-03-13T09:27:49;13.53;;;12.13;;
6432;SDS011;3249;42.690;23.260;2023-03-13T09:30:19;13.87;;;12.30;;
6432;SDS011;3249;42.690;23.260;2023-03-13T09:32:48;14.70;;;11.87;;
6432;SDS011;3249;42.690;23.260;2023-03-13T09:35:17;13.27;;;11.83;;
6432;SDS011;3249;42.690;23.260;2023-03-13T09:37:46;13.43;;;11.43;;
6432;SDS011;3249;42.690;23.260;2023-03-13T09:40:18;16.83;;;11.90;;
6432;SDS011;3249;42.690;23.260;2023-03-13T09:42:49;14.03;;;12.53;;
6432;SDS011;3249;42.690;23.260;2023-03-13T09:45:24;13.37;;;10.93;;
6432;SDS011;3249;42.690;23.260;2023-03-13T09:48:00;15.50;;;11.30;;
6432;SDS011;3249;42.690;23.260;2023-03-13T09:50:34;11.97;;;10.87;;
6432;SDS011;3249;42.690;23.260;2023-03-13T09:53:11;13.23;;;11.80;;
6432;SDS011;3249;42.690;23.260;2023-03-13T09:55:45;13.00;;;11.40;;
6432;SDS011;3249;42.690;23.260;2023-03-13T09:58:16;12.80;;;11.50;;
6432;SDS011;3249;42.690;23.260;2023-03-13T10:00:50;14.63;;;12.17;;
6432;SDS011;3249;42.690;23.260;2023-03-13T10:03:22;13.27;;;11.93;;
6432;SDS011;3249;42.690;23.260;2023-03-13T10:05:56;12.80;;;11.53;;
6432;SDS011;3249;42.690;23.260;2023-03-13T10:08:29;11.43;;;9.83;;
6432;SDS011;3249;42.690;23.260;2023-03-13T10:11:06;14.87;;;11.53;;
6432;SDS011;3249;42.690;23.260;2023-03-13T10:13:40;12.03;;;10.57;;
6432;SDS011;3249;42.690;23.260;2023-03-13T10:16:14;15.67;;;12.33;;
6432;SDS011;3249;42.690;23.260;2023-03-13T10:18:52;14.90;;;12.87;;
6432;SDS011;3249;42.690;23.260;2023-03-13T10:21:25;15.97;;;12.13;;
6432;SDS011;3249;42.690;23.260;2023-03-13T10:24:02;14.33;;;12.80;;
6432;SDS011;3249;42.690;23.260;2023-03-13T10:26:42;14.30;;;12.83;;
6432;SDS011;3249;42.690;23.260;2023-03-13T10:29:20;14.93;;;12.80;;
6432;SDS011;3249;42.690;23.260;2023-03-13T10:31:54;17.07;;;12.87;;
6432;SDS011;3249;42.690;23.260;2023-03-13T10:34:25;14.27;;;12.50;;
6432;SDS011;3249;42.690;23.260;2023-03-13T10:36:57;15.30;;;13.50;;
6432;SDS011;3249;42.690;23.260;2023-03-13T10:39:27;13.80;;;12.37;;
6432;SDS011;3249;42.690;23.260;2023-03-13T10:42:08;15.70;;;12.73;;
6432;SDS011;3249;42.690;23.260;2023-03-13T10:44:38;18.63;;;13.50;;
6432;SDS011;3249;42.690;23.260;2023-03-13T10:47:11;15.07;;;13.57;;
6432;SDS011;3249;42.690;23.260;2023-03-13T10:49:46;16.70;;;14.90;;
6432;SDS011;3249;42.690;23.260;2023-03-13T10:55:17;13.93;;;12.57;;
6432;SDS011;3249;42.690;23.260;2023-03-13T10:57:57;15.13;;;13.80;;
6432;SDS011;3249;42.690;23.260;2023-03-13T11:00:29;18.03;;;15.03;;
6432;SDS011;3249;42.690;23.260;2023-03-13T11:03:02;23.33;;;16.83;;
6432;SDS011;3249;42.690;23.260;2023-03-13T11:05:37;17.83;;;15.83;;
6432;SDS011;3249;42.690;23.260;2023-03-13T11:08:19;19.37;;;15.87;;
6432;SDS011;3249;42.690;23.260;2023-03-13T11:10:51;18.83;;;16.00;;
6432;SDS011;3249;42.690;23.260;2023-03-13T11:13:32;19.63;;;15.77;;
6432;SDS011;3249;42.690;23.260;2023-03-13T11:19:03;19.23;;;13.73;;
6432;SDS011;3249;42.690;23.260;2023-03-13T11:21:47;15.70;;;14.10;;
6432;SDS011;3249;42.690;23.260;2023-03-13T11:24:26;15.73;;;14.20;;
6432;SDS011;3249;42.690;23.260;2023-03-13T11:27:01;18.07;;;13.87;;
6432;SDS011;3249;42.690;23.260;2023-03-13T11:29:41;19.77;;;15.60;;
6432;SDS011;3249;42.690;23.260;2023-03-13T11:32:22;19.43;;;14.30;;
6432;SDS011;3249;42.690;23.260;2023-03-13T11:34:59;16.77;;;13.23;;
6432;SDS011;3249;42.690;23.260;2023-03-13T11:37:33;15.57;;;13.10;;
6432;SDS011;3249;42.690;23.260;2023-03-13T11:40:10;18.60;;;14.63;;
6432;SDS011;3249;42.690;23.260;2023-03-13T11:42:52;17.57;;;14.80;;
6432;SDS011;3249;42.690;23.260;2023-03-13T11:45:44;17.07;;;15.23;;
6432;SDS011;3249;42.690;23.260;2023-03-13T11:51:28;17.57;;;14.23;;
6432;SDS011;3249;42.690;23.260;2023-03-13T11:57:27;17.17;;;15.37;;
6432;SDS011;3249;42.690;23.260;2023-03-13T12:03:01;20.60;;;17.23;;
6432;SDS011;3249;42.690;23.260;2023-03-13T12:05:36;19.73;;;16.80;;
6432;SDS011;3249;42.690;23.260;2023-03-13T12:08:10;20.63;;;16.47;;
6432;SDS011;3249;42.690;23.260;2023-03-13T12:10:45;18.53;;;16.57;;
6432;SDS011;3249;42.690;23.260;2023-03-13T12:13:20;19.50;;;15.57;;
6432;SDS011;3249;42.690;23.260;2023-03-13T12:15:55;27.83;;;15.90;;
6432;SDS011;3249;42.690;23.260;2023-03-13T12:18:32;24.67;;;16.30;;
6432;SDS011;3249;42.690;23.260;2023-03-13T12:21:05;18.27;;;16.33;;
6432;SDS011;3249;42.690;23.260;2023-03-13T12:23:42;20.00;;;17.53;;
6432;SDS011;3249;42.690;23.260;2023-03-13T12:26:17;22.10;;;18.87;;
6432;SDS011;3249;42.690;23.260;2023-03-13T12:28:50;22.03;;;17.67;;
6432;SDS011;3249;42.690;23.260;2023-03-13T12:31:30;21.50;;;16.50;;
6432;SDS011;3249;42.690;23.260;2023-03-13T12:34:08;19.53;;;17.33;;
6432;SDS011;3249;42.690;23.260;2023-03-13T12:36:43;19.70;;;16.27;;
6432;SDS011;3249;42.690;23.260;2023-03-13T12:39:20;22.10;;;17.60;;
6432;SDS011;3249;42.690;23.260;2023-03-13T12:41:58;20.97;;;17.83;;
6432;SDS011;3249;42.690;23.260;2023-03-13T12:44:37;16.83;;;15.03;;
6432;SDS011;3249;42.690;23.260;2023-03-13T12:47:07;20.67;;;17.20;;
6432;SDS011;3249;42.690;23.260;2023-03-13T12:58:57;17.40;;;14.87;;
6432;SDS011;3249;42.690;23.260;2023-03-13T13:01:34;18.73;;;16.23;;
6432;SDS011;3249;42.690;23.260;2023-03-13T13:04:10;17.77;;;15.67;;
6432;SDS011;3249;42.690;23.260;2023-03-13T13:06:51;19.70;;;17.17;;
6432;SDS011;3249;42.690;23.260;2023-03-13T13:09:27;18.30;;;15.00;;
6432;SDS011;3249;42.690;23.260;2023-03-13T13:12:01;18.93;;;16.83;;
6432;SDS011;3249;42.690;23.260;2023-03-13T13:29:01;14.20;;;12.93;;
6432;SDS011;3249;42.690;23.260;2023-03-13T13:32:06;15.47;;;13.90;;
6432;SDS011;3249;42.690;23.260;2023-03-13T13:34:54;14.93;;;13.40;;
6432;SDS011;3249;42.690;23.260;2023-03-13T13:37:27;19.70;;;16.00;;
6432;SDS011;3249;42.690;23.260;2023-03-13T13:40:08;21.10;;;16.87;;
6432;SDS011;3249;42.690;23.260;2023-03-13T13:42:46;17.20;;;14.87;;
6432;SDS011;3249;42.690;23.260;2023-03-13T13:45:24;16.33;;;14.23;;
6432;SDS011;3249;42.690;23.260;2023-03-13T13:48:13;20.87;;;15.47;;
6432;SDS011;3249;42.690;23.260;2023-03-13T13:54:00;17.00;;;13.97;;
6432;SDS011;3249;42.690;23.260;2023-03-13T13:56:39;16.50;;;14.70;;
6432;SDS011;3249;42.690;23.260;2023-03-13T14:02:16;15.60;;;14.00;;
6432;SDS011;3249;42.690;23.260;2023-03-13T14:04:48;16.57;;;14.30;;
6432;SDS011;3249;42.690;23.260;2023-03-13T14:07:24;17.73;;;14.20;;
6432;SDS011;3249;42.690;23.260;2023-03-13T14:10:02;16.50;;;14.80;;
6432;SDS011;3249;42.690;23.260;2023-03-13T14:12:44;14.60;;;13.10;;
6432;SDS011;3249;42.690;23.260;2023-03-13T14:15:15;14.97;;;13.47;;
6432;SDS011;3249;42.690;23.260;2023-03-13T14:17:49;18.27;;;14.47;;
6432;SDS011;3249;42.690;23.260;2023-03-13T14:20:24;17.00;;;15.20;;
6432;SDS011;3249;42.690;23.260;2023-03-13T14:22:58;22.10;;;14.43;;
6432;SDS011;3249;42.690;23.260;2023-03-13T14:25:39;16.07;;;14.03;;
6432;SDS011;3249;42.690;23.260;2023-03-13T14:28:15;16.87;;;15.13;;
6432;SDS011;3249;42.690;23.260;2023-03-13T14:30:46;20.73;;;14.80;;
6432;SDS011;3249;42.690;23.260;2023-03-13T14:33:19;16.40;;;14.30;;
6432;SDS011;3249;42.690;23.260;2023-03-13T14:35:48;18.97;;;15.73;;
6432;SDS011;3249;42.690;23.260;2023-03-13T14:38:18;17.40;;;15.47;;
6432;SDS011;3249;42.690;23.260;2023-03-13T14:40:49;16.27;;;14.57;;
6432;SDS011;3249;42.690;23.260;2023-03-13T14:43:21;27.30;;;15.13;;
6432;SDS011;3249;42.690;23.260;2023-03-13T14:45:55;16.23;;;14.50;;
6432;SDS011;3249;42.690;23.260;2023-03-13T14:48:29;16.73;;;15.07;;
6432;SDS011;3249;42.690;23.260;2023-03-13T14:51:01;16.40;;;14.10;;
6432;SDS011;3249;42.690;23.260;2023-03-13T14:53:31;15.97;;;13.17;;
6432;SDS011;3249;42.690;23.260;2023-03-13T14:56:13;16.10;;;14.43;;
6432;SDS011;3249;42.690;23.260;2023-03-13T14:58:44;17.30;;;13.27;;
6432;SDS011;3249;42.690;23.260;2023-03-13T15:01:19;14.83;;;12.57;;
6432;SDS011;3249;42.690;23.260;2023-03-13T15:03:57;15.00;;;13.30;;
6432;SDS011;3249;42.690;23.260;2023-03-13T15:06:26;14.93;;;13.43;;
6432;SDS011;3249;42.690;23.260;2023-03-13T15:11:54;15.53;;;13.93;;
6432;SDS011;3249;42.690;23.260;2023-03-13T15:14:32;14.27;;;12.63;;
6432;SDS011;3249;42.690;23.260;2023-03-13T15:17:08;14.73;;;11.93;;
6432;SDS011;3249;42.690;23.260;2023-03-13T15:19:46;13.60;;;11.00;;
6432;SDS011;3249;42.690;23.260;2023-03-13T15:22:16;11.47;;;10.30;;
6432;SDS011;3249;42.690;23.260;2023-03-13T15:24:47;19.77;;;11.77;;
6432;SDS011;3249;42.690;23.260;2023-03-13T15:27:16;13.20;;;11.57;;
6432;SDS011;3249;42.690;23.260;2023-03-13T15:29:46;12.40;;;11.27;;
6432;SDS011;3249;42.690;23.260;2023-03-13T15:32:20;12.73;;;11.43;;
6432;SDS011;3249;42.690;23.260;2023-03-13T15:34:54;12.20;;;11.00;;
6432;SDS011;3249;42.690;23.260;2023-03-13T15:37:26;14.03;;;11.50;;
6432;SDS011;3249;42.690;23.260;2023-03-13T15:39:56;12.53;;;11.13;;
6432;SDS011;3249;42.690;23.260;2023-03-13T15:42:25;10.93;;;10.03;;
6432;SDS011;3249;42.690;23.260;2023-03-13T15:44:54;11.33;;;10.23;;
6432;SDS011;3249;42.690;23.260;2023-03-13T15:47:23;13.77;;;11.33;;
6432;SDS011;3249;42.690;23.260;2023-03-13T15:49:56;11.77;;;10.73;;
6432;SDS011;3249;42.690;23.260;2023-03-13T15:52:25;11.07;;;10.07;;
6432;SDS011;3249;42.690;23.260;2023-03-13T15:54:54;12.63;;;11.43;;
6432;SDS011;3249;42.690;23.260;2023-03-13T15:57:23;12.47;;;10.43;;
6432;SDS011;3249;42.690;23.260;2023-03-13T15:59:53;12.23;;;9.53;;
6432;SDS011;3249;42.690;23.260;2023-03-13T16:02:22;13.60;;;10.07;;
6432;SDS011;3249;42.690;23.260;2023-03-13T16:04:52;14.47;;;11.93;;
6432;SDS011;3249;42.690;23.260;2023-03-13T16:07:23;12.33;;;10.53;;
6432;SDS011;3249;42.690;23.260;2023-03-13T16:09:52;16.47;;;11.80;;